createdAt,value
2018-11-02T00:00:31.263Z,7.51
2018-11-02T00:01:31.279Z,7.43
2018-11-02T00:02:31.235Z,7.50
2018-11-02T00:03:31.259Z,7.51
2018-11-02T00:04:31.236Z,7.45
2018-11-02T00:05:31.201Z,7.50
2018-11-02T00:06:31.207Z,7.45
2018-11-02T00:07:31.178Z,7.48
2018-11-02T00:08:31.167Z,7.54
2018-11-02T00:09:31.159Z,7.57
2018-11-02T00:10:31.150Z,7.48
2018-11-02T00:11:31.175Z,7.45
2018-11-02T00:12:31.229Z,7.45
2018-11-02T00:13:31.123Z,7.60
2018-11-02T00:14:31.118Z,7.50
2018-11-02T00:15:31.103Z,7.54
2018-11-02T00:16:31.093Z,7.50
2018-11-02T00:17:31.083Z,7.50
2018-11-02T00:18:31.063Z,7.53
2018-11-02T00:19:31.046Z,7.48
2018-11-02T00:20:31.038Z,7.45
2018-11-02T00:21:31.073Z,7.45
2018-11-02T00:22:31.038Z,7.42
2018-11-02T00:23:31.005Z,7.48
2018-11-02T00:24:30.991Z,7.42
2018-11-02T00:25:31.001Z,7.43
2018-11-02T00:26:30.975Z,7.39
2018-11-02T00:27:30.992Z,7.39
2018-11-02T00:28:30.976Z,7.38
2018-11-02T00:29:30.941Z,7.47
2018-11-02T00:30:30.934Z,7.43
2018-11-02T00:31:30.920Z,7.43
2018-11-02T00:32:30.979Z,7.40
2018-11-02T00:33:30.951Z,7.39
2018-11-02T00:34:30.905Z,7.35
2018-11-02T00:35:30.872Z,7.29
2018-11-02T00:36:30.864Z,7.29
2018-11-02T00:37:30.879Z,7.25
2018-11-02T00:38:30.838Z,7.28
2018-11-02T00:39:30.852Z,7.28
2018-11-02T00:40:30.818Z,7.29
2018-11-02T00:41:30.817Z,7.31
2018-11-02T00:42:30.816Z,7.29
2018-11-02T00:43:30.786Z,7.32
2018-11-02T00:44:30.774Z,7.31
2018-11-02T00:45:30.765Z,7.36
2018-11-02T00:46:30.772Z,7.36
2018-11-02T00:47:30.753Z,7.40
2018-11-02T00:48:30.738Z,7.43
2018-11-02T00:49:30.721Z,7.43
2018-11-02T00:50:30.707Z,7.42
2018-11-02T00:51:30.697Z,7.48
2018-11-02T00:52:30.700Z,7.45
2018-11-02T00:53:30.674Z,7.50
2018-11-02T00:54:30.660Z,7.43
2018-11-02T00:55:30.654Z,7.57
2018-11-02T00:56:30.639Z,7.60
2018-11-02T00:57:30.676Z,7.61
2018-11-02T00:58:30.631Z,7.58
2018-11-02T00:59:30.625Z,7.60
2018-11-02T01:00:30.624Z,7.67
2018-11-02T01:01:30.582Z,7.69
2018-11-02T01:02:30.607Z,7.66
2018-11-02T01:03:30.559Z,7.70
2018-11-02T01:04:30.564Z,7.61
2018-11-02T01:05:30.558Z,7.73
2018-11-02T01:06:30.527Z,7.75
2018-11-02T01:07:30.517Z,7.72
2018-11-02T01:08:30.524Z,7.76
2018-11-02T01:09:30.498Z,7.79
2018-11-02T01:10:30.492Z,7.75
2018-11-02T01:11:30.479Z,7.77
2018-11-02T01:12:30.468Z,7.73
2018-11-02T01:13:30.476Z,7.73
2018-11-02T01:14:30.455Z,7.79
2018-11-02T01:15:30.434Z,7.85
2018-11-02T01:16:30.470Z,7.66
2018-11-02T01:17:30.409Z,7.73
2018-11-02T01:18:30.429Z,7.75
2018-11-02T01:19:30.400Z,7.72
2018-11-02T01:20:30.375Z,7.75
2018-11-02T01:21:30.393Z,7.73
2018-11-02T01:22:30.351Z,7.72
2018-11-02T01:23:30.364Z,7.80
2018-11-02T01:24:30.332Z,7.77
2018-11-02T01:25:30.318Z,7.72
2018-11-02T01:26:30.305Z,7.69
2018-11-02T01:27:30.294Z,7.73
2018-11-02T01:28:30.307Z,7.72
2018-11-02T01:29:30.293Z,7.75
2018-11-02T01:30:30.270Z,7.76
2018-11-02T01:31:30.299Z,7.76
2018-11-02T01:32:30.246Z,7.75
2018-11-02T01:33:30.291Z,7.77
2018-11-02T01:34:30.224Z,7.75
2018-11-02T01:35:30.210Z,7.79
2018-11-02T01:36:30.203Z,7.69
2018-11-02T01:37:30.205Z,7.76
2018-11-02T01:38:30.239Z,7.73
2018-11-02T01:39:30.168Z,7.66
2018-11-02T01:40:30.170Z,7.73
2018-11-02T01:41:30.143Z,7.67
2018-11-02T01:42:30.131Z,7.63
2018-11-02T01:43:30.155Z,7.66
2018-11-02T01:44:30.108Z,7.66
2018-11-02T01:45:30.111Z,7.63
2018-11-02T01:46:30.101Z,7.66
2018-11-02T01:47:30.079Z,7.66
2018-11-02T01:48:30.113Z,7.58
2018-11-02T01:49:30.073Z,7.60
2018-11-02T01:50:30.067Z,7.56
2018-11-02T01:51:30.039Z,7.53
2018-11-02T01:52:30.024Z,7.57
2018-11-02T01:53:30.010Z,7.70
2018-11-02T01:54:30.015Z,7.61
2018-11-02T01:55:29.999Z,7.58
2018-11-02T01:56:29.977Z,7.57
2018-11-02T01:57:29.976Z,7.56
2018-11-02T01:58:29.978Z,7.67
2018-11-02T01:59:29.968Z,7.67
2018-11-02T02:00:29.936Z,7.69
2018-11-02T02:01:29.927Z,7.56
2018-11-02T02:02:29.921Z,7.69
2018-11-02T02:03:29.953Z,7.73
2018-11-02T02:04:29.917Z,7.75
2018-11-02T02:05:29.885Z,7.63
2018-11-02T02:06:29.880Z,7.77
2018-11-02T02:07:29.857Z,7.70
2018-11-02T02:08:29.849Z,7.76
2018-11-02T02:09:29.854Z,7.75
2018-11-02T02:10:29.834Z,7.79
2018-11-02T02:11:29.856Z,7.66
2018-11-02T02:12:29.805Z,7.73
2018-11-02T02:13:29.792Z,7.72
2018-11-02T02:14:29.795Z,7.72
2018-11-02T02:15:29.780Z,7.70
2018-11-02T02:16:29.761Z,7.76
2018-11-02T02:17:29.755Z,7.72
2018-11-02T02:18:29.766Z,7.67
2018-11-02T02:19:29.758Z,7.73
2018-11-02T02:20:29.726Z,7.79
2018-11-02T02:21:29.700Z,7.76
2018-11-02T02:22:29.690Z,7.76
2018-11-02T02:23:29.690Z,7.77
2018-11-02T02:24:29.699Z,7.79
2018-11-02T02:25:29.678Z,7.72
2018-11-02T02:26:29.674Z,7.72
2018-11-02T02:27:29.638Z,7.76
2018-11-02T02:28:29.628Z,7.72
2018-11-02T02:29:29.618Z,7.70
2018-11-02T02:30:29.642Z,7.72
2018-11-02T02:31:29.594Z,7.75
2018-11-02T02:32:29.583Z,7.72
2018-11-02T02:33:29.605Z,7.80
2018-11-02T02:34:29.568Z,7.82
2018-11-02T02:35:29.565Z,7.83
2018-11-02T02:36:29.543Z,7.85
2018-11-02T02:37:29.527Z,7.82
2018-11-02T02:38:29.524Z,7.85
2018-11-02T02:39:29.537Z,7.83
2018-11-02T02:40:29.512Z,7.80
2018-11-02T02:41:29.491Z,7.80
2018-11-02T02:42:29.491Z,7.82
2018-11-02T02:43:29.462Z,7.85
2018-11-02T02:44:29.460Z,7.83
2018-11-02T02:45:29.464Z,7.82
2018-11-02T02:46:29.431Z,7.85
2018-11-02T02:47:29.424Z,7.90
2018-11-02T02:48:29.429Z,7.90
2018-11-02T02:49:29.397Z,7.85
2018-11-02T02:50:29.407Z,7.87
2018-11-02T02:51:29.387Z,7.85
2018-11-02T02:52:29.363Z,7.87
2018-11-02T02:53:29.358Z,7.85
2018-11-02T02:54:29.357Z,7.90
2018-11-02T02:55:29.351Z,7.77
2018-11-02T02:56:29.321Z,7.79
2018-11-02T02:57:29.337Z,7.83
2018-11-02T02:58:29.305Z,7.85
2018-11-02T02:59:29.293Z,7.88
2018-11-02T03:00:29.327Z,7.88
2018-11-02T03:01:29.276Z,7.90
2018-11-02T03:02:29.333Z,7.97
2018-11-02T03:03:29.245Z,7.90
2018-11-02T03:04:29.246Z,7.85
2018-11-02T03:05:29.223Z,7.82
2018-11-02T03:06:29.251Z,7.87
2018-11-02T03:07:29.209Z,7.90
2018-11-02T03:08:29.191Z,7.83
2018-11-02T03:09:29.181Z,7.79
2018-11-02T03:10:29.207Z,7.85
2018-11-02T03:11:29.188Z,7.82
2018-11-02T03:12:29.148Z,7.85
2018-11-02T03:13:29.145Z,7.85
2018-11-02T03:14:29.122Z,7.80
2018-11-02T03:15:29.126Z,7.85
2018-11-02T03:16:29.122Z,7.90
2018-11-02T03:17:29.142Z,7.85
2018-11-02T03:18:29.130Z,7.94
2018-11-02T03:19:29.143Z,7.85
2018-11-02T03:20:29.065Z,7.94
2018-11-02T03:21:29.070Z,7.87
2018-11-02T03:22:29.169Z,7.90
2018-11-02T03:23:29.029Z,7.87
2018-11-02T03:24:29.015Z,7.94
2018-11-02T03:25:29.016Z,7.94
2018-11-02T03:26:29.015Z,7.91
2018-11-02T03:27:28.989Z,7.90
2018-11-02T03:28:28.988Z,7.85
2018-11-02T03:29:28.960Z,7.87
2018-11-02T03:30:28.950Z,7.88
2018-11-02T03:31:28.961Z,7.87
2018-11-02T03:32:28.978Z,7.85
2018-11-02T03:33:28.919Z,7.87
2018-11-02T03:34:28.908Z,7.88
2018-11-02T03:35:28.903Z,7.87
2018-11-02T03:36:28.909Z,7.85
2018-11-02T03:37:28.883Z,7.80
2018-11-02T03:38:28.884Z,7.82
2018-11-02T03:39:28.849Z,7.85
2018-11-02T03:40:28.842Z,7.83
2018-11-02T03:41:28.859Z,7.85
2018-11-02T03:42:28.829Z,7.82
2018-11-02T03:43:28.832Z,7.82
2018-11-02T03:44:28.800Z,7.88
2018-11-02T03:45:28.791Z,7.82
2018-11-02T03:46:28.785Z,7.91
2018-11-02T03:47:28.791Z,7.87
2018-11-02T03:48:28.760Z,7.95
2018-11-02T03:49:28.741Z,7.87
2018-11-02T03:50:28.782Z,7.91
2018-11-02T03:51:28.722Z,7.90
2018-11-02T03:52:28.731Z,7.80
2018-11-02T03:53:28.708Z,7.83
2018-11-02T03:54:28.699Z,7.87
2018-11-02T03:55:28.681Z,7.77
2018-11-02T03:56:28.734Z,7.79
2018-11-02T03:57:28.674Z,7.83
2018-11-02T03:58:28.654Z,7.73
2018-11-02T03:59:28.684Z,7.75
2018-11-02T04:00:28.632Z,7.80
2018-11-02T04:01:28.611Z,7.85
2018-11-02T04:02:28.641Z,7.83
2018-11-02T04:03:28.631Z,7.85
2018-11-02T04:04:28.582Z,7.77
2018-11-02T04:05:28.581Z,7.80
2018-11-02T04:06:28.584Z,7.85
2018-11-02T04:07:28.585Z,7.88
2018-11-02T04:08:28.538Z,7.90
2018-11-02T04:09:28.648Z,7.87
2018-11-02T04:10:28.549Z,7.93
2018-11-02T04:11:28.509Z,7.90
2018-11-02T04:12:28.511Z,7.91
2018-11-02T04:13:28.485Z,7.94
2018-11-02T04:14:28.468Z,7.95
2018-11-02T04:15:28.472Z,7.94
2018-11-02T04:16:28.448Z,7.88
2018-11-02T04:17:28.459Z,7.90
2018-11-02T04:18:28.451Z,7.94
2018-11-02T04:19:28.413Z,7.93
2018-11-02T04:20:28.408Z,7.95
2018-11-02T04:21:28.398Z,7.95
2018-11-02T04:22:28.419Z,7.98
2018-11-02T04:23:28.375Z,7.98
2018-11-02T04:24:28.365Z,8.06
2018-11-02T04:25:28.348Z,7.98
2018-11-02T04:26:28.338Z,8.00
2018-11-02T04:27:28.337Z,8.05
2018-11-02T04:28:28.340Z,7.98
2018-11-02T04:29:28.317Z,8.00
2018-11-02T04:30:28.293Z,8.05
2018-11-02T04:31:28.282Z,7.97
2018-11-02T04:32:28.271Z,8.01
2018-11-02T04:33:28.310Z,8.06
2018-11-02T04:34:28.258Z,7.98
2018-11-02T04:35:28.237Z,8.05
2018-11-02T04:36:28.227Z,8.08
2018-11-02T04:37:28.225Z,8.09
2018-11-02T04:38:28.225Z,8.05
2018-11-02T04:39:28.192Z,8.09
2018-11-02T04:40:28.188Z,8.08
2018-11-02T04:41:28.174Z,8.13
2018-11-02T04:42:28.168Z,8.03
2018-11-02T04:43:28.223Z,8.06
2018-11-02T04:44:28.150Z,8.01
2018-11-02T04:45:28.176Z,7.98
2018-11-02T04:46:28.118Z,8.00
2018-11-02T04:47:28.119Z,8.00
2018-11-02T04:48:28.112Z,8.03
2018-11-02T04:49:28.101Z,7.97
2018-11-02T04:50:28.107Z,7.94
2018-11-02T04:51:28.065Z,7.93
2018-11-02T04:52:28.057Z,7.93
2018-11-02T04:53:28.065Z,7.91
2018-11-02T04:54:28.029Z,7.88
2018-11-02T04:55:28.016Z,7.93
2018-11-02T04:56:28.008Z,7.94
2018-11-02T04:57:27.995Z,7.90
2018-11-02T04:58:28.026Z,7.94
2018-11-02T04:59:27.982Z,7.91
2018-11-02T05:00:27.965Z,7.91
2018-11-02T05:01:27.955Z,7.94
2018-11-02T05:02:27.982Z,7.94
2018-11-02T05:03:27.964Z,7.90
2018-11-02T05:04:27.927Z,7.91
2018-11-02T05:05:27.922Z,7.91
2018-11-02T05:06:27.933Z,7.91
2018-11-02T05:07:27.884Z,7.91
2018-11-02T05:08:27.875Z,7.91
2018-11-02T05:09:27.925Z,7.91
2018-11-02T05:10:27.864Z,7.97
2018-11-02T05:11:28.050Z,7.97
2018-11-02T05:12:27.839Z,7.88
2018-11-02T05:13:27.818Z,7.85
2018-11-02T05:14:27.836Z,7.85
2018-11-02T05:15:27.813Z,8.01
2018-11-02T05:16:27.790Z,7.97
2018-11-02T05:17:27.790Z,7.83
2018-11-02T05:18:27.763Z,7.94
2018-11-02T05:19:27.783Z,7.85
2018-11-02T05:20:27.760Z,7.83
2018-11-02T05:21:27.861Z,7.91
2018-11-02T05:22:27.733Z,7.91
2018-11-02T05:23:27.734Z,7.85
2018-11-02T05:24:27.721Z,7.91
2018-11-02T05:25:27.700Z,7.90
2018-11-02T05:26:27.713Z,7.83
2018-11-02T05:27:27.676Z,7.83
2018-11-02T05:28:27.663Z,7.88
2018-11-02T05:29:27.675Z,7.76
2018-11-02T05:30:27.657Z,7.73
2018-11-02T05:31:27.634Z,7.72
2018-11-02T05:32:27.629Z,7.72
2018-11-02T05:33:27.607Z,7.67
2018-11-02T05:34:27.618Z,7.83
2018-11-02T05:35:27.582Z,7.70
2018-11-02T05:36:27.572Z,7.80
2018-11-02T05:37:27.574Z,7.75
2018-11-02T05:38:27.549Z,7.75
2018-11-02T05:39:27.628Z,7.82
2018-11-02T05:40:27.547Z,7.75
2018-11-02T05:41:27.525Z,7.72
2018-11-02T05:42:27.510Z,7.73
2018-11-02T05:43:27.495Z,7.70
2018-11-02T05:44:27.496Z,7.72
2018-11-02T05:45:27.471Z,7.73
2018-11-02T05:46:27.466Z,7.75
2018-11-02T05:47:27.632Z,7.75
2018-11-02T05:48:27.465Z,7.76
2018-11-02T05:49:27.450Z,7.66
2018-11-02T05:50:27.422Z,7.75
2018-11-02T05:51:27.434Z,7.67
2018-11-02T05:52:27.418Z,7.75
2018-11-02T05:53:27.392Z,7.70
2018-11-02T05:54:27.508Z,7.75
2018-11-02T05:55:27.365Z,7.69
2018-11-02T05:56:27.364Z,7.69
2018-11-02T05:57:27.338Z,7.66
2018-11-02T05:58:27.355Z,7.69
2018-11-02T05:59:27.359Z,7.57
2018-11-02T06:00:27.338Z,7.57
2018-11-02T06:01:27.348Z,7.66
2018-11-02T06:02:27.287Z,7.67
2018-11-02T06:03:27.277Z,7.61
2018-11-02T06:04:27.259Z,7.66
2018-11-02T06:05:27.278Z,7.69
2018-11-02T06:06:27.256Z,7.63
2018-11-02T06:07:27.274Z,7.60
2018-11-02T06:08:27.234Z,7.60
2018-11-02T06:09:27.211Z,7.63
2018-11-02T06:10:27.213Z,7.75
2018-11-02T06:11:27.212Z,7.70
2018-11-02T06:12:27.173Z,7.73
2018-11-02T06:13:27.216Z,7.73
2018-11-02T06:14:27.153Z,7.63
2018-11-02T06:15:27.181Z,7.66
2018-11-02T06:16:27.133Z,7.73
2018-11-02T06:17:27.126Z,7.73
2018-11-02T06:18:27.107Z,7.75
2018-11-02T06:19:27.105Z,7.67
2018-11-02T06:20:27.108Z,7.69
2018-11-02T06:21:27.073Z,7.73
2018-11-02T06:22:27.065Z,7.77
2018-11-02T06:23:27.057Z,7.60
2018-11-02T06:24:27.093Z,7.73
2018-11-02T06:25:27.172Z,7.73
2018-11-02T06:26:27.016Z,7.73
2018-11-02T06:27:27.025Z,7.72
2018-11-02T06:28:26.994Z,7.75
2018-11-02T06:29:26.984Z,7.75
2018-11-02T06:30:27.030Z,7.67
2018-11-02T06:31:26.961Z,7.80
2018-11-02T06:32:27.008Z,7.77
2018-11-02T06:33:26.971Z,7.73
2018-11-02T06:34:26.934Z,7.72
2018-11-02T06:35:26.955Z,7.76
2018-11-02T06:36:26.909Z,7.80
2018-11-02T06:37:26.898Z,7.79
2018-11-02T06:38:26.924Z,7.88
2018-11-02T06:39:26.887Z,7.93
2018-11-02T06:40:26.899Z,7.82
2018-11-02T06:41:26.861Z,7.87
2018-11-02T06:42:26.873Z,7.85
2018-11-02T06:43:26.831Z,7.87
2018-11-02T06:44:26.824Z,7.90
2018-11-02T06:45:26.829Z,7.94
2018-11-02T06:46:26.847Z,7.93
2018-11-02T06:47:26.789Z,7.85
2018-11-02T06:48:26.818Z,7.91
2018-11-02T06:49:26.793Z,7.98
2018-11-02T06:50:26.762Z,8.06
2018-11-02T06:51:26.806Z,8.00
2018-11-02T06:52:26.759Z,8.03
2018-11-02T06:53:26.726Z,8.01
2018-11-02T06:54:26.735Z,8.08
2018-11-02T06:55:26.726Z,8.03
2018-11-02T06:56:26.691Z,8.05
2018-11-02T06:57:26.721Z,8.08
2018-11-02T06:58:26.676Z,8.03
2018-11-02T06:59:26.848Z,8.05
2018-11-02T07:00:26.789Z,8.03
2018-11-02T07:01:26.636Z,7.97
2018-11-02T07:02:26.673Z,8.08
2018-11-02T07:03:26.627Z,8.10
2018-11-02T07:04:26.606Z,8.06
2018-11-02T07:05:26.591Z,8.15
2018-11-02T07:06:26.586Z,8.06
2018-11-02T07:07:26.752Z,8.08
2018-11-02T07:08:26.669Z,8.15
2018-11-02T07:09:26.553Z,8.15
2018-11-02T07:10:26.549Z,8.12
2018-11-02T07:11:26.540Z,8.16
2018-11-02T07:12:26.536Z,8.15
2018-11-02T07:13:26.529Z,8.13
2018-11-02T07:14:26.492Z,8.13
2018-11-02T07:15:26.491Z,8.13
2018-11-02T07:16:26.492Z,8.15
2018-11-02T07:17:26.481Z,8.15
2018-11-02T07:18:26.448Z,8.13
2018-11-02T07:19:26.443Z,8.15
2018-11-02T07:20:26.431Z,8.15
2018-11-02T07:21:26.417Z,8.20
2018-11-02T07:22:27.637Z,8.19
2018-11-02T07:23:26.403Z,8.15
2018-11-02T07:24:26.386Z,8.28
2018-11-02T07:25:26.388Z,8.36
2018-11-02T07:26:26.365Z,8.33
2018-11-02T07:27:26.387Z,8.30
2018-11-02T07:28:26.340Z,8.30
2018-11-02T07:29:26.333Z,8.26
2018-11-02T07:30:26.321Z,8.28
2018-11-02T07:31:26.307Z,8.34
2018-11-02T07:32:26.350Z,8.27
2018-11-02T07:33:26.291Z,8.28
2018-11-02T07:34:26.386Z,8.36
2018-11-02T07:35:26.303Z,8.38
2018-11-02T07:36:26.257Z,8.42
2018-11-02T07:37:26.250Z,8.44
2018-11-02T07:38:26.313Z,8.42
2018-11-02T07:39:26.259Z,8.42
2018-11-02T07:40:26.231Z,8.42
2018-11-02T07:41:26.203Z,8.55
2018-11-02T07:42:26.222Z,8.53
2018-11-02T07:43:26.250Z,8.51
2018-11-02T07:44:26.166Z,8.60
2018-11-02T07:45:26.161Z,8.64
2018-11-02T07:46:26.154Z,8.69
2018-11-02T07:47:26.216Z,8.73
2018-11-02T07:48:26.157Z,8.78
2018-11-02T07:49:26.131Z,8.74
2018-11-02T07:50:26.117Z,8.82
2018-11-02T07:51:26.121Z,8.76
2018-11-02T07:52:26.081Z,8.89
2018-11-02T07:53:26.111Z,8.89
2018-11-02T07:54:26.069Z,8.92
2018-11-02T07:55:26.085Z,8.94
2018-11-02T07:56:26.167Z,9.02
2018-11-02T07:57:26.029Z,9.08
2018-11-02T07:58:26.053Z,9.14
2018-11-02T07:59:26.009Z,9.19
2018-11-02T08:00:26.004Z,9.13
2018-11-02T08:01:25.981Z,9.23
2018-11-02T08:02:25.982Z,9.29
2018-11-02T08:03:25.982Z,9.34
2018-11-02T08:04:25.955Z,9.28
2018-11-02T08:05:25.959Z,9.34
2018-11-02T08:06:25.947Z,9.40
2018-11-02T08:07:25.925Z,9.44
2018-11-02T08:08:25.935Z,9.47
2018-11-02T08:09:25.899Z,9.46
2018-11-02T08:10:25.910Z,9.43
2018-11-02T08:11:25.948Z,9.44
2018-11-02T08:12:25.875Z,9.43
2018-11-02T08:13:25.888Z,9.43
2018-11-02T08:14:25.842Z,9.41
2018-11-02T08:15:25.832Z,9.47
2018-11-02T08:16:25.841Z,9.46
2018-11-02T08:17:25.860Z,9.55
2018-11-02T08:18:25.863Z,9.48
2018-11-02T08:19:25.795Z,9.54
2018-11-02T08:20:25.776Z,9.62
2018-11-02T08:21:25.773Z,9.62
2018-11-02T08:22:25.758Z,9.64
2018-11-02T08:23:25.785Z,9.65
2018-11-02T08:24:25.808Z,9.64
2018-11-02T08:25:25.728Z,9.66
2018-11-02T08:26:25.720Z,9.80
2018-11-02T08:27:25.705Z,9.76
2018-11-02T08:28:25.721Z,9.89
2018-11-02T08:29:25.681Z,9.80
2018-11-02T08:30:25.691Z,9.89
2018-11-02T08:31:25.657Z,9.87
2018-11-02T08:32:25.654Z,9.91
2018-11-02T08:33:25.665Z,9.95
2018-11-02T08:34:25.623Z,10.05
2018-11-02T08:35:25.615Z,10.04
2018-11-02T08:36:25.599Z,10.07
2018-11-02T08:37:25.604Z,10.07
2018-11-02T08:38:25.609Z,10.15
2018-11-02T08:39:25.596Z,10.07
2018-11-02T08:40:25.560Z,10.20
2018-11-02T08:41:25.552Z,10.10
2018-11-02T08:42:25.578Z,10.12
2018-11-02T08:43:25.584Z,10.07
2018-11-02T08:44:25.543Z,10.28
2018-11-02T08:45:25.517Z,10.13
2018-11-02T08:46:25.542Z,10.22
2018-11-02T08:47:25.529Z,10.28
2018-11-02T08:48:25.494Z,10.22
2018-11-02T08:49:25.480Z,10.17
2018-11-02T08:50:25.460Z,10.19
2018-11-02T08:51:25.459Z,10.15
2018-11-02T08:52:25.504Z,10.31
2018-11-02T08:53:25.426Z,10.22
2018-11-02T08:54:25.424Z,10.26
2018-11-02T08:55:25.396Z,10.33
2018-11-02T08:56:25.391Z,10.26
2018-11-02T08:57:25.379Z,10.23
2018-11-02T08:58:25.507Z,10.25
2018-11-02T08:59:25.525Z,10.35
2018-11-02T09:00:25.373Z,10.31
2018-11-02T09:01:25.338Z,10.25
2018-11-02T09:02:25.328Z,10.31
2018-11-02T09:03:25.308Z,10.26
2018-11-02T09:04:25.340Z,10.31
2018-11-02T09:05:25.302Z,10.34
2018-11-02T09:06:25.273Z,10.31
2018-11-02T09:07:25.268Z,10.44
2018-11-02T09:08:25.265Z,10.48
2018-11-02T09:09:25.271Z,10.44
2018-11-02T09:10:25.235Z,10.48
2018-11-02T09:11:25.225Z,10.54
2018-11-02T09:12:25.233Z,10.57
2018-11-02T09:13:25.202Z,10.54
2018-11-02T09:14:25.214Z,10.56
2018-11-02T09:15:25.188Z,10.60
2018-11-02T09:16:25.180Z,10.76
2018-11-02T09:17:25.156Z,10.61
2018-11-02T09:18:25.152Z,10.72
2018-11-02T09:19:25.205Z,10.61
2018-11-02T09:20:25.159Z,10.67
2018-11-02T09:21:25.112Z,10.76
2018-11-02T09:22:25.107Z,10.69
2018-11-02T09:23:25.090Z,10.69
2018-11-02T09:24:25.112Z,10.76
2018-11-02T09:25:25.113Z,10.74
2018-11-02T09:26:25.055Z,10.81
2018-11-02T09:27:25.122Z,10.87
2018-11-02T09:28:25.036Z,10.92
2018-11-02T09:29:25.073Z,10.93
2018-11-02T09:30:25.062Z,10.94
2018-11-02T09:31:25.020Z,10.96
2018-11-02T09:32:24.990Z,10.99
2018-11-02T09:33:24.993Z,10.99
2018-11-02T09:34:24.979Z,11.04
2018-11-02T09:35:24.981Z,11.08
2018-11-02T09:36:24.955Z,11.05
2018-11-02T09:37:24.969Z,11.08
2018-11-02T09:38:24.935Z,11.15
2018-11-02T09:39:24.921Z,11.04
2018-11-02T09:40:24.976Z,11.10
2018-11-02T09:41:24.892Z,11.07
2018-11-02T09:42:24.933Z,11.08
2018-11-02T09:43:24.925Z,11.04
2018-11-02T09:44:24.858Z,11.10
2018-11-02T09:45:24.867Z,11.02
2018-11-02T09:46:24.850Z,11.18
2018-11-02T09:47:24.831Z,11.04
2018-11-02T09:48:24.827Z,11.05
2018-11-02T09:49:24.840Z,11.11
2018-11-02T09:50:24.841Z,11.04
2018-11-02T09:51:24.853Z,11.04
2018-11-02T09:52:24.784Z,10.96
2018-11-02T09:53:24.765Z,10.93
2018-11-02T09:54:24.793Z,10.94
2018-11-02T09:55:24.774Z,10.99
2018-11-02T09:56:24.730Z,10.99
2018-11-02T09:57:24.727Z,10.97
2018-11-02T09:58:24.706Z,10.92
2018-11-02T09:59:24.713Z,10.93
2018-11-02T10:00:24.722Z,10.99
2018-11-02T10:01:24.673Z,10.89
2018-11-02T10:02:24.666Z,10.99
2018-11-02T10:03:24.646Z,10.97
2018-11-02T10:04:24.677Z,10.90
2018-11-02T10:05:24.658Z,10.86
2018-11-02T10:06:24.646Z,11.02
2018-11-02T10:07:24.606Z,11.02
2018-11-02T10:08:24.631Z,11.07
2018-11-02T10:09:24.589Z,11.02
2018-11-02T10:10:24.574Z,11.07
2018-11-02T10:11:24.585Z,11.10
2018-11-02T10:12:24.555Z,11.12
2018-11-02T10:13:25.503Z,11.17
2018-11-02T10:14:24.539Z,11.12
2018-11-02T10:15:24.525Z,11.17
2018-11-02T10:16:24.539Z,11.19
2018-11-02T10:17:24.512Z,11.18
2018-11-02T10:18:24.492Z,11.18
2018-11-02T10:19:24.473Z,11.12
2018-11-02T10:20:24.469Z,11.17
2018-11-02T10:21:24.485Z,11.14
2018-11-02T10:22:24.451Z,11.17
2018-11-02T10:23:24.453Z,11.08
2018-11-02T10:24:24.457Z,11.10
2018-11-02T10:25:24.403Z,11.17
2018-11-02T10:26:24.432Z,11.19
2018-11-02T10:27:24.992Z,11.17
2018-11-02T10:28:24.407Z,11.11
2018-11-02T10:29:24.386Z,11.15
2018-11-02T10:30:24.353Z,11.15
2018-11-02T10:31:24.382Z,11.19
2018-11-02T10:32:24.339Z,11.23
2018-11-02T10:33:24.320Z,11.33
2018-11-02T10:34:24.344Z,11.33
2018-11-02T10:35:24.317Z,11.41
2018-11-02T10:36:24.304Z,11.43
2018-11-02T10:37:24.273Z,11.44
2018-11-02T10:38:24.267Z,11.45
2018-11-02T10:39:24.289Z,11.52
2018-11-02T10:40:24.247Z,11.48
2018-11-02T10:41:24.264Z,11.48
2018-11-02T10:42:24.218Z,11.63
2018-11-02T10:43:24.214Z,11.51
2018-11-02T10:44:24.303Z,11.55
2018-11-02T10:45:24.224Z,11.65
2018-11-02T10:46:24.172Z,11.69
2018-11-02T10:47:24.183Z,11.69
2018-11-02T10:48:24.159Z,11.81
2018-11-02T10:49:24.241Z,11.70
2018-11-02T10:50:24.132Z,11.87
2018-11-02T10:51:24.148Z,11.88
2018-11-02T10:52:24.126Z,11.90
2018-11-02T10:53:24.100Z,11.90
2018-11-02T10:54:24.104Z,12.02
2018-11-02T10:55:24.098Z,12.04
2018-11-02T10:56:24.116Z,12.04
2018-11-02T10:57:24.077Z,12.07
2018-11-02T10:58:24.054Z,12.02
2018-11-02T10:59:24.038Z,12.04
2018-11-02T11:00:24.029Z,12.15
2018-11-02T11:01:24.084Z,12.21
2018-11-02T11:02:24.030Z,12.21
2018-11-02T11:03:23.994Z,12.18
2018-11-02T11:04:24.000Z,12.28
2018-11-02T11:05:24.100Z,12.29
2018-11-02T11:06:23.956Z,12.40
2018-11-02T11:07:23.983Z,12.35
2018-11-02T11:08:23.936Z,12.42
2018-11-02T11:09:23.929Z,12.37
2018-11-02T11:10:23.911Z,12.45
2018-11-02T11:11:23.916Z,12.43
2018-11-02T11:12:24.130Z,12.46
2018-11-02T11:13:24.208Z,12.39
2018-11-02T11:14:23.873Z,12.47
2018-11-02T11:15:23.857Z,12.46
2018-11-02T11:16:23.852Z,12.54
2018-11-02T11:17:23.854Z,12.58
2018-11-02T11:18:23.822Z,12.55
2018-11-02T11:19:23.818Z,12.61
2018-11-02T11:20:23.836Z,12.61
2018-11-02T11:21:23.925Z,12.61
2018-11-02T11:22:23.808Z,12.60
2018-11-02T11:23:23.770Z,12.72
2018-11-02T11:24:23.779Z,12.70
2018-11-02T11:25:23.764Z,12.58
2018-11-02T11:26:23.735Z,12.70
2018-11-02T11:27:23.769Z,12.75
2018-11-02T11:28:23.729Z,12.72
2018-11-02T11:29:23.794Z,12.75
2018-11-02T11:30:23.700Z,12.83
2018-11-02T11:31:23.685Z,12.80
2018-11-02T11:32:23.694Z,12.87
2018-11-02T11:33:23.682Z,12.93
2018-11-02T11:34:23.657Z,12.85
2018-11-02T11:35:23.635Z,12.86
2018-11-02T11:36:23.632Z,12.85
2018-11-02T11:37:23.639Z,12.86
2018-11-02T11:38:23.629Z,12.87
2018-11-02T11:39:23.612Z,12.87
2018-11-02T11:40:23.603Z,12.90
2018-11-02T11:41:23.586Z,12.95
2018-11-02T11:42:23.561Z,12.97
2018-11-02T11:43:23.573Z,12.97
2018-11-02T11:44:23.547Z,13.04
2018-11-02T11:45:23.544Z,13.00
2018-11-02T11:46:23.522Z,12.95
2018-11-02T11:47:23.517Z,12.93
2018-11-02T11:48:23.597Z,12.91
2018-11-02T11:49:23.486Z,12.97
2018-11-02T11:50:23.478Z,13.03
2018-11-02T11:51:23.471Z,13.01
2018-11-02T11:52:23.450Z,12.93
2018-11-02T11:53:23.471Z,12.91
2018-11-02T11:54:23.488Z,12.86
2018-11-02T11:55:23.421Z,12.87
2018-11-02T11:56:23.417Z,12.80
2018-11-02T11:57:23.403Z,12.86
2018-11-02T11:58:23.422Z,12.91
2018-11-02T11:59:23.376Z,12.94
2018-11-02T12:00:23.380Z,12.87
2018-11-02T12:01:23.364Z,12.91
2018-11-02T12:02:23.416Z,12.86
2018-11-02T12:03:23.350Z,12.87
2018-11-02T12:04:23.372Z,12.80
2018-11-02T12:05:23.312Z,12.91
2018-11-02T12:06:23.303Z,12.98
2018-11-02T12:07:23.291Z,12.94
2018-11-02T12:08:23.305Z,13.09
2018-11-02T12:09:23.290Z,13.04
2018-11-02T12:10:23.364Z,13.03
2018-11-02T12:11:23.252Z,13.08
2018-11-02T12:12:23.260Z,13.11
2018-11-02T12:13:23.228Z,13.09
2018-11-02T12:14:23.252Z,13.12
2018-11-02T12:15:23.219Z,13.16
2018-11-02T12:16:23.216Z,13.18
2018-11-02T12:17:23.211Z,13.25
2018-11-02T12:18:23.182Z,13.23
2018-11-02T12:19:23.203Z,13.25
2018-11-02T12:20:23.157Z,13.25
2018-11-02T12:21:23.144Z,13.19
2018-11-02T12:22:23.141Z,13.27
2018-11-02T12:23:23.144Z,13.28
2018-11-02T12:24:23.134Z,13.23
2018-11-02T12:25:23.102Z,13.28
2018-11-02T12:26:23.081Z,13.30
2018-11-02T12:27:23.071Z,13.23
2018-11-02T12:28:23.247Z,13.33
2018-11-02T12:29:23.080Z,13.35
2018-11-02T12:30:23.041Z,13.37
2018-11-02T12:31:23.037Z,13.30
2018-11-02T12:32:23.031Z,13.37
2018-11-02T12:33:23.019Z,13.31
2018-11-02T12:34:23.013Z,13.31
2018-11-02T12:35:23.003Z,13.30
2018-11-02T12:36:23.008Z,13.37
2018-11-02T12:37:22.965Z,13.33
2018-11-02T12:38:22.951Z,13.39
2018-11-02T12:39:22.961Z,13.28
2018-11-02T12:40:22.934Z,13.31
2018-11-02T12:41:22.945Z,13.30
2018-11-02T12:42:22.909Z,13.39
2018-11-02T12:43:22.995Z,13.41
2018-11-02T12:44:22.918Z,13.35
2018-11-02T12:45:22.877Z,13.41
2018-11-02T12:46:22.869Z,13.35
2018-11-02T12:47:22.856Z,13.46
2018-11-02T12:48:23.020Z,13.42
2018-11-02T12:49:23.192Z,13.33
2018-11-02T12:50:22.996Z,13.38
2018-11-02T12:51:22.811Z,13.42
2018-11-02T12:52:22.810Z,13.41
2018-11-02T12:53:22.814Z,13.53
2018-11-02T12:54:22.800Z,13.56
2018-11-02T12:55:22.776Z,13.49
2018-11-02T12:56:22.774Z,13.47
2018-11-02T12:57:22.768Z,13.56
2018-11-02T12:58:22.811Z,13.60
2018-11-02T12:59:22.732Z,13.62
2018-11-02T13:00:22.718Z,13.60
2018-11-02T13:01:22.707Z,13.57
2018-11-02T13:02:22.709Z,13.57
2018-11-02T13:03:22.715Z,13.62
2018-11-02T13:04:22.678Z,13.77
2018-11-02T13:05:22.680Z,13.79
2018-11-02T13:06:22.656Z,13.74
2018-11-02T13:07:22.648Z,13.70
2018-11-02T13:08:22.670Z,13.71
2018-11-02T13:09:22.695Z,13.78